createdAt,value
2018-05-26T00:00:12.332Z,58.26
2018-05-26T00:02:40.759Z,58.49
2018-05-26T00:05:09.176Z,58.44
2018-05-26T00:07:37.632Z,58.52
2018-05-26T00:10:06.057Z,58.77
2018-05-26T00:12:34.484Z,59.38
2018-05-26T00:15:02.944Z,59.12
2018-05-26T00:17:31.374Z,59.40
2018-05-26T00:19:59.799Z,59.20
2018-05-26T00:22:28.279Z,59.33
2018-05-26T00:24:56.712Z,59.30
2018-05-26T00:27:25.157Z,60.06
2018-05-26T00:29:53.635Z,60.10
2018-05-26T00:32:22.062Z,60.32
2018-05-26T00:34:50.478Z,60.35
2018-05-26T00:37:18.949Z,60.81
2018-05-26T00:39:47.360Z,60.69
2018-05-26T00:42:15.789Z,61.26
2018-05-26T00:44:44.256Z,60.99
2018-05-26T00:47:12.684Z,60.97
2018-05-26T00:49:41.109Z,60.98
2018-05-26T00:52:09.576Z,61.36
2018-05-26T00:54:37.995Z,61.24
2018-05-26T00:57:06.420Z,61.32
2018-05-26T00:59:35.068Z,61.54
2018-05-26T01:02:03.496Z,61.45
2018-05-26T01:04:31.917Z,61.57
2018-05-26T01:07:00.380Z,62.08
2018-05-26T01:09:28.805Z,61.89
2018-05-26T01:11:57.230Z,62.02
2018-05-26T01:14:25.716Z,62.14
2018-05-26T01:16:54.161Z,62.37
2018-05-26T01:19:22.583Z,62.34
2018-05-26T01:21:51.059Z,62.36
2018-05-26T01:24:19.492Z,62.46
2018-05-26T01:26:47.910Z,64.12
2018-05-26T01:29:16.375Z,63.44
2018-05-26T01:31:44.805Z,64.13
2018-05-26T01:34:13.237Z,64.87
2018-05-26T01:36:41.702Z,65.01
2018-05-26T01:39:10.125Z,65.57
2018-05-26T01:41:38.547Z,67.67
2018-05-26T01:44:07.164Z,67.79
2018-05-26T01:46:35.575Z,67.49
2018-05-26T01:49:04.005Z,67.12
2018-05-26T01:51:32.461Z,67.28
2018-05-26T01:54:00.871Z,66.92
2018-05-26T01:56:29.286Z,66.50
2018-05-26T01:58:57.752Z,66.58
2018-05-26T02:01:26.169Z,66.23
2018-05-26T02:03:54.605Z,65.71
2018-05-26T02:06:23.065Z,66.96
2018-05-26T02:08:51.501Z,66.51
2018-05-26T02:11:19.929Z,65.89
2018-05-26T02:13:48.420Z,65.69
2018-05-26T02:16:16.849Z,65.89
2018-05-26T02:21:20.052Z,65.63
2018-05-26T02:23:48.475Z,65.58
2018-05-26T02:26:16.940Z,65.39
2018-05-26T02:28:45.412Z,65.27
2018-05-26T02:31:13.843Z,65.28
2018-05-26T02:33:42.267Z,65.28
2018-05-26T02:36:10.736Z,65.43
2018-05-26T02:38:39.169Z,66.30
2018-05-26T02:41:07.616Z,66.14
2018-05-26T02:43:36.076Z,66.13
2018-05-26T02:46:04.498Z,66.15
2018-05-26T02:48:32.928Z,67.20
2018-05-26T02:51:01.423Z,67.18
2018-05-26T02:53:29.859Z,66.95
2018-05-26T02:55:58.282Z,66.52
2018-05-26T02:58:26.754Z,67.24
2018-05-26T03:00:55.173Z,66.99
2018-05-26T03:03:23.610Z,67.23
2018-05-26T03:05:57.585Z,66.63
2018-05-26T03:08:31.626Z,67.48
2018-05-26T03:11:05.766Z,66.76
2018-05-26T03:13:39.744Z,67.04
2018-05-26T03:16:10.665Z,67.73
2018-05-26T03:18:39.088Z,67.33
2018-05-26T03:21:07.495Z,67.60
2018-05-26T03:23:35.967Z,68.85
2018-05-26T03:26:04.395Z,68.66
2018-05-26T03:28:32.817Z,68.35
2018-05-26T03:31:01.267Z,68.31
2018-05-26T03:33:29.693Z,68.21
2018-05-26T03:35:58.126Z,68.08
2018-05-26T03:38:26.593Z,68.21
2018-05-26T03:40:55.028Z,68.11
2018-05-26T03:43:23.461Z,68.07
2018-05-26T03:45:51.920Z,68.39
2018-05-26T03:48:20.343Z,68.49
2018-05-26T03:50:48.785Z,68.51
2018-05-26T03:53:17.253Z,68.43
2018-05-26T03:59:03.456Z,68.68
2018-05-26T04:01:31.878Z,69.32
2018-05-26T04:04:00.293Z,69.32
2018-05-26T04:06:28.770Z,69.25
2018-05-26T04:08:57.200Z,69.17
2018-05-26T04:11:25.690Z,69.34
2018-05-26T04:13:54.133Z,69.60
2018-05-26T04:16:22.568Z,69.27
2018-05-26T04:18:51.020Z,69.33
2018-05-26T04:21:19.485Z,69.38
2018-05-26T04:23:47.914Z,70.08
2018-05-26T04:26:16.346Z,70.88
2018-05-26T04:28:44.812Z,70.14
2018-05-26T04:31:13.234Z,69.38
2018-05-26T04:33:41.663Z,69.03
2018-05-26T04:36:10.152Z,68.86
2018-05-26T04:38:38.577Z,68.65
2018-05-26T04:41:07.002Z,68.46
2018-05-26T04:43:35.464Z,68.98
2018-05-26T04:46:03.886Z,68.58
2018-05-26T04:48:32.308Z,68.50
2018-05-26T04:51:00.768Z,68.18
2018-05-26T04:53:29.189Z,68.64
2018-05-26T04:55:57.617Z,68.74
2018-05-26T04:58:26.093Z,68.65
2018-05-26T05:00:54.529Z,68.39
2018-05-26T05:03:22.936Z,67.94
2018-05-26T05:05:51.399Z,67.01
2018-05-26T05:08:19.823Z,66.83
2018-05-26T05:10:48.251Z,66.19
2018-05-26T05:13:16.717Z,66.21
2018-05-26T05:15:45.145Z,65.68
2018-05-26T05:18:13.564Z,65.38
2018-05-26T05:20:42.041Z,65.15
2018-05-26T05:23:10.468Z,65.01
2018-05-26T05:25:38.888Z,64.51
2018-05-26T05:28:07.357Z,64.50
2018-05-26T05:30:35.786Z,64.94
2018-05-26T05:33:04.224Z,64.72
2018-05-26T05:35:32.725Z,64.82
2018-05-26T05:38:01.160Z,65.21
2018-05-26T05:40:29.584Z,65.74
2018-05-26T05:42:58.049Z,66.01
2018-05-26T05:45:26.477Z,65.25
2018-05-26T05:47:54.912Z,65.28
2018-05-26T05:50:23.400Z,63.70
2018-05-26T05:52:51.851Z,63.86
2018-05-26T05:55:20.282Z,62.89
2018-05-26T05:57:48.749Z,63.24
2018-05-26T06:00:17.189Z,62.07
2018-05-26T06:02:45.624Z,61.63
2018-05-26T06:05:14.097Z,61.90
2018-05-26T06:07:42.524Z,62.21
2018-05-26T06:10:10.943Z,62.23
2018-05-26T06:12:39.423Z,60.68
2018-05-26T06:15:08.124Z,59.89
2018-05-26T06:17:36.529Z,60.37
2018-05-26T06:20:05.090Z,59.79
2018-05-26T06:22:33.522Z,59.86
2018-05-26T06:25:01.957Z,60.24
2018-05-26T06:27:30.425Z,59.95
2018-05-26T06:29:58.851Z,60.01
2018-05-26T06:32:27.264Z,60.66
2018-05-26T06:34:55.744Z,57.68
2018-05-26T06:37:24.180Z,58.17
2018-05-26T06:39:52.622Z,57.47
2018-05-26T06:42:21.086Z,58.10
2018-05-26T06:44:49.892Z,56.86
2018-05-26T06:47:18.344Z,56.61
2018-05-26T06:49:46.824Z,55.61
2018-05-26T06:52:15.278Z,55.91
2018-05-26T06:54:43.710Z,55.52
2018-05-26T06:57:12.181Z,54.92
2018-05-26T06:59:40.609Z,54.30
2018-05-26T07:02:09.057Z,55.56
2018-05-26T07:04:37.540Z,54.52
2018-05-26T07:07:05.957Z,54.24
2018-05-26T07:09:34.388Z,54.51
2018-05-26T07:12:02.836Z,54.05
2018-05-26T07:14:31.256Z,55.67
2018-05-26T07:16:59.683Z,54.91
2018-05-26T07:19:28.155Z,54.29
2018-05-26T07:21:56.585Z,52.89
2018-05-26T07:24:25.012Z,53.49
2018-05-26T07:26:53.480Z,53.17
2018-05-26T07:29:21.911Z,51.60
2018-05-26T07:31:50.339Z,52.29
2018-05-26T07:34:18.824Z,52.39
2018-05-26T07:36:47.289Z,52.09
2018-05-26T07:39:15.730Z,51.25
2018-05-26T07:41:44.372Z,51.22
2018-05-26T07:44:12.800Z,51.85
2018-05-26T07:46:41.256Z,52.39
2018-05-26T07:49:09.725Z,51.96
2018-05-26T07:51:38.157Z,51.87
2018-05-26T07:54:06.572Z,52.75
2018-05-26T07:56:35.043Z,52.67
2018-05-26T07:59:03.499Z,53.88
2018-05-26T08:01:31.965Z,54.16
2018-05-26T08:04:00.444Z,54.13
2018-05-26T08:06:28.860Z,54.11
2018-05-26T08:08:57.294Z,53.36
2018-05-26T08:11:25.805Z,53.17
2018-05-26T08:13:54.535Z,53.89
2018-05-26T08:16:23.173Z,53.99
2018-05-26T08:18:52.120Z,53.42
2018-05-26T08:21:21.009Z,54.24
2018-05-26T08:23:49.783Z,52.31
2018-05-26T08:26:18.710Z,52.23
2018-05-26T08:28:47.489Z,51.68
2018-05-26T08:31:16.239Z,51.59
2018-05-26T08:33:44.931Z,50.40
2018-05-26T08:36:13.834Z,50.43
2018-05-26T08:38:42.530Z,49.48
2018-05-26T08:41:11.175Z,49.00
2018-05-26T08:43:39.829Z,48.94
2018-05-26T08:46:08.481Z,48.54
2018-05-26T08:48:37.496Z,48.97
2018-05-26T08:51:06.187Z,48.25
2018-05-26T08:53:35.040Z,48.10
2018-05-26T08:56:03.768Z,46.42
2018-05-26T08:58:32.494Z,47.34
2018-05-26T09:01:01.088Z,48.69
2018-05-26T09:03:29.899Z,47.17
2018-05-26T09:05:58.330Z,47.35
2018-05-26T09:08:26.759Z,46.89
2018-05-26T09:10:55.221Z,47.20
2018-05-26T09:13:23.649Z,46.59
2018-05-26T09:15:52.081Z,47.09
2018-05-26T09:18:20.563Z,48.11
2018-05-26T09:20:48.988Z,46.54
2018-05-26T09:23:17.421Z,46.72
2018-05-26T09:25:45.884Z,45.60
2018-05-26T09:28:14.331Z,45.47
2018-05-26T09:30:42.766Z,44.50
2018-05-26T09:33:11.240Z,44.81
2018-05-26T09:35:39.670Z,44.91
2018-05-26T09:38:08.105Z,43.53
2018-05-26T09:40:36.577Z,44.78
2018-05-26T09:43:05.013Z,43.58
2018-05-26T09:45:33.444Z,44.36
2018-05-26T09:48:01.920Z,44.34
2018-05-26T09:50:30.391Z,43.49
2018-05-26T09:52:58.834Z,43.53
2018-05-26T09:55:27.305Z,43.69
2018-05-26T09:57:55.731Z,42.86
2018-05-26T10:00:24.157Z,43.01
2018-05-26T10:02:52.625Z,43.49
2018-05-26T10:05:21.053Z,42.88
2018-05-26T10:07:49.484Z,43.10
2018-05-26T10:10:17.959Z,42.74
2018-05-26T10:12:46.387Z,40.55
2018-05-26T10:15:14.820Z,39.46
2018-05-26T10:17:43.292Z,40.49
2018-05-26T10:20:11.713Z,41.99
2018-05-26T10:22:40.141Z,42.59
2018-05-26T10:25:08.608Z,40.79
2018-05-26T10:27:37.046Z,39.56
2018-05-26T10:30:05.506Z,40.42
2018-05-26T10:32:34.229Z,41.94
2018-05-26T10:35:02.684Z,39.50
2018-05-26T10:37:31.453Z,40.41
2018-05-26T10:39:59.916Z,40.85
2018-05-26T10:42:28.349Z,40.32
2018-05-26T10:44:56.781Z,39.23
2018-05-26T10:47:25.286Z,39.65
2018-05-26T10:49:53.705Z,38.73
2018-05-26T10:52:22.134Z,40.04
2018-05-26T10:54:50.619Z,38.98
2018-05-26T10:57:19.044Z,38.47
2018-05-26T10:59:47.473Z,38.21
2018-05-26T11:02:15.928Z,38.91
2018-05-26T11:04:44.361Z,38.63
2018-05-26T11:07:12.794Z,39.14
2018-05-26T11:09:41.280Z,39.13
2018-05-26T11:12:09.705Z,39.26
2018-05-26T11:14:38.159Z,38.67
2018-05-26T11:17:06.689Z,37.92
2018-05-26T11:19:35.126Z,37.35
2018-05-26T11:22:03.570Z,36.93
2018-05-26T11:24:32.098Z,36.56
2018-05-26T11:27:00.729Z,37.19
2018-05-26T11:29:29.154Z,37.28
2018-05-26T11:31:57.627Z,36.18
2018-05-26T11:34:26.061Z,36.31
2018-05-26T11:36:54.477Z,37.05
2018-05-26T11:39:22.952Z,36.84
2018-05-26T11:41:51.385Z,36.13
2018-05-26T11:44:19.808Z,36.11
2018-05-26T11:46:48.301Z,34.38
2018-05-26T11:49:16.729Z,34.14
2018-05-26T11:51:45.159Z,35.45
2018-05-26T11:54:13.636Z,34.87
2018-05-26T11:56:42.059Z,35.13
2018-05-26T11:59:10.490Z,34.29
2018-05-26T12:01:38.959Z,35.07
2018-05-26T12:04:07.384Z,34.92
2018-05-26T12:06:35.812Z,34.73
2018-05-26T12:09:04.317Z,34.70
2018-05-26T12:11:32.750Z,33.80
2018-05-26T12:14:01.177Z,32.92
2018-05-26T12:16:29.648Z,34.38
2018-05-26T12:18:58.070Z,33.79
2018-05-26T12:21:26.492Z,32.97
2018-05-26T12:23:54.951Z,32.65
2018-05-26T12:26:23.385Z,31.84
2018-05-26T12:28:51.999Z,32.23
2018-05-26T12:31:20.485Z,31.82
2018-05-26T12:33:48.909Z,31.46
2018-05-26T12:36:17.330Z,32.63
2018-05-26T12:38:45.788Z,32.13
2018-05-26T12:41:14.212Z,32.36
2018-05-26T12:43:42.641Z,31.81
2018-05-26T12:46:11.111Z,32.67
2018-05-26T12:48:39.536Z,32.02
2018-05-26T12:51:07.954Z,32.32
2018-05-26T12:53:36.423Z,31.43
2018-05-26T12:56:04.868Z,31.25
2018-05-26T12:58:33.291Z,30.95
2018-05-26T13:01:01.814Z,31.48
2018-05-26T13:03:30.237Z,30.84
2018-05-26T13:05:58.715Z,29.76
2018-05-26T13:08:27.212Z,30.50
2018-05-26T13:10:55.641Z,30.72
2018-05-26T13:13:24.062Z,30.48
2018-05-26T13:15:52.681Z,31.06
2018-05-26T13:18:21.123Z,31.15
2018-05-26T13:20:49.581Z,29.93
2018-05-26T13:23:18.079Z,30.08
2018-05-26T13:25:46.536Z,29.48
2018-05-26T13:28:14.974Z,29.36
2018-05-26T13:30:43.455Z,29.72
2018-05-26T13:33:11.910Z,28.79
2018-05-26T13:35:40.371Z,29.45
2018-05-26T13:38:08.843Z,29.11
2018-05-26T13:40:37.276Z,29.82
2018-05-26T13:43:05.702Z,30.32
2018-05-26T13:45:34.170Z,30.72
2018-05-26T13:48:02.626Z,30.36
2018-05-26T13:50:31.068Z,29.91
2018-05-26T13:52:59.688Z,29.58
2018-05-26T13:55:28.100Z,28.74
2018-05-26T13:57:56.541Z,29.41
2018-05-26T14:00:25.025Z,30.07
2018-05-26T14:02:53.456Z,30.33
2018-05-26T14:05:21.876Z,29.58
2018-05-26T14:07:50.340Z,30.11
2018-05-26T14:10:18.774Z,28.92
2018-05-26T14:12:47.206Z,29.67
2018-05-26T14:15:15.701Z,28.38
2018-05-26T14:17:44.125Z,28.84
2018-05-26T14:20:12.557Z,27.81
2018-05-26T14:22:41.028Z,29.21
2018-05-26T14:25:09.461Z,28.55
2018-05-26T14:27:37.900Z,28.85
2018-05-26T14:30:06.385Z,28.85
2018-05-26T14:32:34.873Z,28.52
2018-05-26T14:35:03.301Z,29.10
2018-05-26T14:37:31.784Z,29.05
2018-05-26T14:40:00.209Z,28.71
2018-05-26T14:42:28.636Z,28.75
2018-05-26T14:44:57.099Z,28.09
2018-05-26T14:47:25.524Z,28.62
2018-05-26T14:49:53.971Z,29.45
2018-05-26T14:52:22.444Z,28.52
2018-05-26T14:54:50.864Z,30.26
2018-05-26T14:57:19.301Z,30.15
2018-05-26T14:59:47.765Z,29.78
2018-05-26T15:02:16.208Z,31.07
2018-05-26T15:04:44.640Z,30.47
2018-05-26T15:07:13.108Z,31.08
2018-05-26T15:09:41.551Z,31.12
2018-05-26T15:12:10.016Z,32.37
2018-05-26T15:14:38.665Z,32.39
2018-05-26T15:17:07.110Z,32.17
2018-05-26T15:19:35.546Z,31.86
2018-05-26T15:22:04.048Z,31.92
2018-05-26T15:24:32.482Z,31.77
2018-05-26T15:27:00.909Z,32.35
2018-05-26T15:29:29.383Z,31.67
2018-05-26T15:31:57.833Z,32.52
2018-05-26T15:34:26.254Z,32.11
2018-05-26T15:36:54.731Z,32.74
2018-05-26T15:39:23.155Z,30.87
2018-05-26T15:41:51.583Z,31.32
2018-05-26T15:44:20.060Z,31.10
2018-05-26T15:46:48.484Z,31.59
2018-05-26T15:49:17.240Z,31.99
2018-05-26T15:51:45.717Z,32.90
2018-05-26T15:54:14.187Z,33.46
2018-05-26T15:56:42.604Z,32.38
2018-05-26T15:59:11.073Z,32.46
2018-05-26T16:01:39.511Z,33.05
2018-05-26T16:04:07.932Z,32.85
2018-05-26T16:06:36.416Z,32.32
2018-05-26T16:09:05.663Z,31.85
2018-05-26T16:11:34.093Z,31.88
2018-05-26T16:14:02.603Z,31.90
2018-05-26T16:16:31.029Z,32.37
2018-05-26T16:18:59.460Z,33.08
2018-05-26T16:21:27.934Z,33.16
2018-05-26T16:23:56.357Z,33.65
2018-05-26T16:26:24.788Z,33.48
2018-05-26T16:28:53.258Z,33.30
2018-05-26T16:31:21.689Z,33.14
2018-05-26T16:33:50.136Z,34.57
2018-05-26T16:36:18.612Z,34.59
2018-05-26T16:38:47.059Z,33.99
2018-05-26T16:41:15.484Z,33.70
2018-05-26T16:43:44.000Z,34.17
2018-05-26T16:46:12.468Z,32.90
2018-05-26T16:48:41.223Z,33.37
2018-05-26T16:51:09.716Z,33.91
2018-05-26T16:53:38.156Z,33.95
2018-05-26T16:56:06.584Z,34.08
2018-05-26T16:58:35.052Z,34.20
2018-05-26T17:01:03.481Z,33.81
2018-05-26T17:03:31.911Z,34.65
2018-05-26T17:06:00.381Z,34.34
2018-05-26T17:08:29.131Z,34.60
2018-05-26T17:10:57.564Z,35.05
2018-05-26T17:13:26.048Z,34.94
2018-05-26T17:15:54.491Z,34.97
2018-05-26T17:18:22.922Z,35.36
2018-05-26T17:20:51.407Z,35.34
2018-05-26T17:23:19.831Z,34.22
2018-05-26T17:25:48.265Z,34.86
2018-05-26T17:28:16.748Z,34.78
2018-05-26T17:30:45.180Z,35.44
2018-05-26T17:33:13.616Z,35.65
2018-05-26T17:35:42.100Z,36.01
2018-05-26T17:38:10.553Z,35.55
2018-05-26T17:40:39.009Z,35.98
2018-05-26T17:43:07.486Z,36.73
2018-05-26T17:45:35.940Z,36.46
2018-05-26T17:48:04.395Z,36.53
2018-05-26T17:50:32.884Z,37.24
2018-05-26T17:53:01.325Z,37.25
2018-05-26T17:55:30.007Z,37.76
2018-05-26T17:57:58.527Z,37.76
2018-05-26T18:00:26.953Z,37.23
2018-05-26T18:02:55.380Z,37.42
2018-05-26T18:05:23.862Z,37.82
2018-05-26T18:07:52.304Z,37.87
2018-05-26T18:10:20.745Z,38.21
2018-05-26T18:12:49.226Z,38.42
2018-05-26T18:15:17.676Z,39.01
2018-05-26T18:17:46.113Z,38.96
2018-05-26T18:20:14.598Z,39.03
2018-05-26T18:22:43.037Z,40.48
2018-05-26T18:25:11.492Z,41.93
2018-05-26T18:27:39.970Z,42.42
2018-05-26T18:30:08.404Z,41.70
2018-05-26T18:32:36.825Z,42.65
2018-05-26T18:35:05.292Z,42.11
2018-05-26T18:37:33.744Z,42.56
2018-05-26T18:40:02.189Z,43.02
2018-05-26T18:42:30.735Z,43.38
2018-05-26T18:44:59.178Z,43.83
2018-05-26T18:47:27.681Z,42.63
2018-05-26T18:49:56.353Z,43.21
2018-05-26T18:52:24.779Z,43.22
2018-05-26T18:54:53.220Z,43.96
2018-05-26T18:57:21.724Z,43.58
2018-05-26T18:59:50.159Z,44.72
2018-05-26T19:02:18.602Z,42.52
2018-05-26T19:04:47.093Z,40.99
2018-05-26T19:07:15.510Z,42.28
2018-05-26T19:09:43.948Z,41.99
2018-05-26T19:12:12.429Z,42.00
2018-05-26T19:14:40.858Z,42.60
2018-05-26T19:17:09.293Z,43.00
2018-05-26T19:19:37.769Z,43.04
2018-05-26T19:22:06.197Z,42.01
2018-05-26T19:24:34.636Z,41.64
2018-05-26T19:27:03.104Z,41.79
2018-05-26T19:29:31.541Z,43.32
2018-05-26T19:31:59.997Z,42.04
2018-05-26T19:34:28.461Z,42.69
2018-05-26T19:36:56.944Z,41.62
2018-05-26T19:39:25.357Z,41.85
2018-05-26T19:41:53.844Z,42.50
2018-05-26T19:44:22.280Z,44.56
2018-05-26T19:46:50.736Z,43.31
2018-05-26T19:49:19.197Z,43.29
2018-05-26T19:51:47.636Z,43.56
2018-05-26T19:54:16.061Z,43.79
2018-05-26T19:56:44.529Z,44.09
2018-05-26T19:59:12.967Z,44.59
2018-05-26T20:01:41.435Z,44.62
2018-05-26T20:04:09.931Z,45.35
2018-05-26T20:06:38.368Z,45.32
2018-05-26T20:09:06.798Z,45.58
2018-05-26T20:11:35.276Z,46.04
2018-05-26T20:14:03.717Z,46.28
2018-05-26T20:16:32.365Z,46.63
2018-05-26T20:19:00.862Z,46.76
2018-05-26T20:21:29.373Z,47.13
2018-05-26T20:23:57.802Z,47.37
2018-05-26T20:26:26.294Z,47.68
2018-05-26T20:28:54.718Z,47.83
2018-05-26T20:31:23.157Z,48.22
2018-05-26T20:33:51.616Z,48.59
2018-05-26T20:36:20.029Z,48.87
2018-05-26T20:38:48.482Z,49.05
2018-05-26T20:41:16.961Z,49.41
2018-05-26T20:43:45.429Z,49.54
2018-05-26T20:46:13.861Z,49.68
2018-05-26T20:48:42.517Z,49.87
2018-05-26T20:51:10.951Z,50.03
2018-05-26T20:53:39.370Z,50.32
2018-05-26T20:56:07.856Z,50.42
2018-05-26T20:58:36.282Z,50.56
2018-05-26T21:01:04.704Z,50.81
2018-05-26T21:03:33.184Z,50.93
2018-05-26T21:06:01.638Z,51.19
2018-05-26T21:08:30.076Z,51.32
2018-05-26T21:10:58.541Z,51.53
2018-05-26T21:13:26.992Z,51.75
2018-05-26T21:15:55.423Z,51.96
2018-05-26T21:18:23.906Z,52.32
2018-05-26T21:20:52.332Z,52.60
2018-05-26T21:23:20.768Z,52.89
2018-05-26T21:25:49.274Z,53.03
2018-05-26T21:28:17.705Z,53.11
2018-05-26T21:30:46.132Z,53.39
2018-05-26T21:33:14.598Z,53.33
2018-05-26T21:35:43.025Z,53.33
2018-05-26T21:38:11.451Z,53.46
2018-05-26T21:40:39.934Z,53.38
2018-05-26T21:43:08.686Z,53.49
2018-05-26T21:45:37.102Z,53.62
2018-05-26T21:48:05.569Z,53.52
2018-05-26T21:50:33.981Z,53.29
2018-05-26T21:53:02.405Z,53.41
2018-05-26T21:55:31.106Z,53.36
2018-05-26T21:57:59.536Z,53.42
2018-05-26T22:00:27.961Z,53.98
2018-05-26T22:02:56.450Z,54.32
2018-05-26T22:05:24.872Z,55.18
2018-05-26T22:07:53.301Z,56.38
2018-05-26T22:10:21.772Z,56.91
2018-05-26T22:12:50.211Z,56.64
2018-05-26T22:15:18.646Z,56.44
2018-05-26T22:17:47.109Z,56.11
2018-05-26T22:20:15.545Z,56.30
2018-05-26T22:22:43.972Z,56.20
2018-05-26T22:25:12.461Z,56.03
2018-05-26T22:27:40.880Z,56.17
2018-05-26T22:30:09.325Z,56.37
2018-05-26T22:32:37.797Z,56.59
2018-05-26T22:35:06.246Z,56.99
2018-05-26T22:37:34.668Z,56.91
2018-05-26T22:40:03.150Z,57.15
2018-05-26T22:42:31.585Z,57.04
2018-05-26T22:45:00.000Z,57.19
2018-05-26T22:47:28.498Z,57.30
2018-05-26T22:49:56.931Z,57.46
2018-05-26T22:52:25.364Z,57.44
2018-05-26T22:54:53.858Z,57.65
2018-05-26T22:57:22.349Z,57.86
2018-05-26T22:59:50.762Z,58.08
2018-05-26T23:02:19.254Z,58.14
2018-05-26T23:04:47.682Z,57.96
2018-05-26T23:07:16.152Z,57.95
2018-05-26T23:09:44.633Z,57.97
2018-05-26T23:12:13.070Z,57.97
2018-05-26T23:14:41.549Z,58.06
2018-05-26T23:17:10.024Z,57.82
2018-05-26T23:19:38.450Z,57.48
2018-05-26T23:22:06.894Z,57.20
2018-05-26T23:24:35.386Z,57.03
2018-05-26T23:27:03.810Z,57.34
2018-05-26T23:29:32.260Z,57.21
2018-05-26T23:32:00.725Z,57.22
2018-05-26T23:34:29.165Z,57.18
2018-05-26T23:36:57.598Z,57.27
2018-05-26T23:39:26.073Z,57.42
2018-05-26T23:41:54.516Z,57.32
2018-05-26T23:44:22.950Z,57.44
2018-05-26T23:46:51.430Z,57.83
2018-05-26T23:49:19.858Z,57.85
2018-05-26T23:51:48.292Z,57.83
2018-05-26T23:54:16.769Z,58.11
2018-05-26T23:56:45.193Z,59.11
2018-05-26T23:59:13.618Z,59.55
